sensor_id;sensor_type;location;lat;lon;timestamp;temperature;humidity
2783;DHT22;1399;47.072;15.452;2022-10-16T00:01:18;15.10;83.30
2783;DHT22;1399;47.072;15.452;2022-10-16T00:03:45;15.10;83.30
2783;DHT22;1399;47.072;15.452;2022-10-16T00:06:13;15.10;83.30
2783;DHT22;1399;47.072;15.452;2022-10-16T00:08:39;15.10;83.30
2783;DHT22;1399;47.072;15.452;2022-10-16T00:11:17;15.10;83.30
2783;DHT22;1399;47.072;15.452;2022-10-16T00:13:44;15.10;83.30
2783;DHT22;1399;47.072;15.452;2022-10-16T00:16:12;15.10;83.20
2783;DHT22;1399;47.072;15.452;2022-10-16T00:18:38;15.10;83.20
2783;DHT22;1399;47.072;15.452;2022-10-16T00:21:05;15.10;83.10
2783;DHT22;1399;47.072;15.452;2022-10-16T00:23:32;15.10;83.20
2783;DHT22;1399;47.072;15.452;2022-10-16T00:26:00;15.10;83.10
2783;DHT22;1399;47.072;15.452;2022-10-16T00:28:27;15.10;83.00
2783;DHT22;1399;47.072;15.452;2022-10-16T00:30:53;15.10;83.00
2783;DHT22;1399;47.072;15.452;2022-10-16T00:33:20;15.10;83.00
2783;DHT22;1399;47.072;15.452;2022-10-16T00:35:47;15.10;83.00
2783;DHT22;1399;47.072;15.452;2022-10-16T00:38:13;15.10;83.00
2783;DHT22;1399;47.072;15.452;2022-10-16T00:40:38;15.10;82.90
2783;DHT22;1399;47.072;15.452;2022-10-16T00:43:40;15.10;82.90
2783;DHT22;1399;47.072;15.452;2022-10-16T00:46:22;15.10;82.80
2783;DHT22;1399;47.072;15.452;2022-10-16T00:51:32;15.10;82.70
2783;DHT22;1399;47.072;15.452;2022-10-16T00:54:00;15.10;82.70
2783;DHT22;1399;47.072;15.452;2022-10-16T00:56:26;15.10;82.60
2783;DHT22;1399;47.072;15.452;2022-10-16T00:58:52;15.10;82.60
2783;DHT22;1399;47.072;15.452;2022-10-16T01:01:18;15.10;82.50
2783;DHT22;1399;47.072;15.452;2022-10-16T01:03:44;15.10;82.50
2783;DHT22;1399;47.072;15.452;2022-10-16T01:09:14;15.10;82.50
2783;DHT22;1399;47.072;15.452;2022-10-16T01:14:34;15.00;82.30
2783;DHT22;1399;47.072;15.452;2022-10-16T01:17:16;15.00;82.30
2783;DHT22;1399;47.072;15.452;2022-10-16T01:23:27;15.00;82.20
2783;DHT22;1399;47.072;15.452;2022-10-16T01:28:30;15.00;82.10
2783;DHT22;1399;47.072;15.452;2022-10-16T01:30:59;15.00;82.10
2783;DHT22;1399;47.072;15.452;2022-10-16T01:33:40;15.00;82.10
2783;DHT22;1399;47.072;15.452;2022-10-16T01:36:14;15.00;82.00
2783;DHT22;1399;47.072;15.452;2022-10-16T01:38:41;15.00;82.00
2783;DHT22;1399;47.072;15.452;2022-10-16T01:41:18;14.90;81.90
2783;DHT22;1399;47.072;15.452;2022-10-16T01:43:49;14.90;81.80
2783;DHT22;1399;47.072;15.452;2022-10-16T01:46:18;14.90;81.80
2783;DHT22;1399;47.072;15.452;2022-10-16T01:48:47;14.90;81.80
2783;DHT22;1399;47.072;15.452;2022-10-16T01:51:15;14.90;81.80
2783;DHT22;1399;47.072;15.452;2022-10-16T01:53:45;14.90;81.80
2783;DHT22;1399;47.072;15.452;2022-10-16T01:56:13;14.90;81.80
2783;DHT22;1399;47.072;15.452;2022-10-16T01:58:47;14.90;81.80
2783;DHT22;1399;47.072;15.452;2022-10-16T02:01:16;14.90;81.70
2783;DHT22;1399;47.072;15.452;2022-10-16T02:03:44;14.90;81.70
2783;DHT22;1399;47.072;15.452;2022-10-16T02:06:12;14.90;81.70
2783;DHT22;1399;47.072;15.452;2022-10-16T02:08:38;14.90;81.60
2783;DHT22;1399;47.072;15.452;2022-10-16T02:11:06;14.90;81.60
2783;DHT22;1399;47.072;15.452;2022-10-16T02:15:58;14.90;81.60
2783;DHT22;1399;47.072;15.452;2022-10-16T02:18:25;14.90;81.50
2783;DHT22;1399;47.072;15.452;2022-10-16T02:20:59;14.90;81.50
2783;DHT22;1399;47.072;15.452;2022-10-16T02:26:15;14.90;81.50
2783;DHT22;1399;47.072;15.452;2022-10-16T02:28:46;14.90;81.50
2783;DHT22;1399;47.072;15.452;2022-10-16T02:31:18;14.80;81.40
2783;DHT22;1399;47.072;15.452;2022-10-16T02:33:45;14.90;81.50
2783;DHT22;1399;47.072;15.452;2022-10-16T02:36:12;14.90;81.50
2783;DHT22;1399;47.072;15.452;2022-10-16T02:38:39;14.90;81.50
2783;DHT22;1399;47.072;15.452;2022-10-16T02:41:07;14.90;81.50
2783;DHT22;1399;47.072;15.452;2022-10-16T02:43:33;14.90;81.50
2783;DHT22;1399;47.072;15.452;2022-10-16T02:46:00;14.80;81.40
2783;DHT22;1399;47.072;15.452;2022-10-16T02:48:25;14.90;81.50
2783;DHT22;1399;47.072;15.452;2022-10-16T02:50:51;14.90;81.40
2783;DHT22;1399;47.072;15.452;2022-10-16T02:53:17;14.80;81.30
2783;DHT22;1399;47.072;15.452;2022-10-16T02:55:42;14.80;81.30
2783;DHT22;1399;47.072;15.452;2022-10-16T02:58:08;14.80;81.20
2783;DHT22;1399;47.072;15.452;2022-10-16T03:00:34;14.80;81.30
2783;DHT22;1399;47.072;15.452;2022-10-16T03:03:00;14.80;81.20
2783;DHT22;1399;47.072;15.452;2022-10-16T03:05:25;14.90;81.30
2783;DHT22;1399;47.072;15.452;2022-10-16T03:07:51;14.80;81.20
2783;DHT22;1399;47.072;15.452;2022-10-16T03:10:18;14.80;81.20
2783;DHT22;1399;47.072;15.452;2022-10-16T03:12:44;14.80;81.20
2783;DHT22;1399;47.072;15.452;2022-10-16T03:15:10;14.80;81.20
2783;DHT22;1399;47.072;15.452;2022-10-16T03:17:36;14.80;81.20
2783;DHT22;1399;47.072;15.452;2022-10-16T03:20:02;14.80;81.20
2783;DHT22;1399;47.072;15.452;2022-10-16T03:22:28;14.80;81.20
2783;DHT22;1399;47.072;15.452;2022-10-16T03:24:54;14.80;81.20
2783;DHT22;1399;47.072;15.452;2022-10-16T03:27:20;14.80;81.10
2783;DHT22;1399;47.072;15.452;2022-10-16T03:29:46;14.80;81.20
2783;DHT22;1399;47.072;15.452;2022-10-16T03:32:12;14.70;81.00
2783;DHT22;1399;47.072;15.452;2022-10-16T03:34:37;14.70;81.00
2783;DHT22;1399;47.072;15.452;2022-10-16T03:37:04;14.70;81.00
2783;DHT22;1399;47.072;15.452;2022-10-16T03:39:30;14.70;81.00
2783;DHT22;1399;47.072;15.452;2022-10-16T03:41:56;14.70;81.00
2783;DHT22;1399;47.072;15.452;2022-10-16T03:44:22;14.70;80.90
2783;DHT22;1399;47.072;15.452;2022-10-16T03:46:48;14.70;80.90
2783;DHT22;1399;47.072;15.452;2022-10-16T03:49:14;14.70;80.90
2783;DHT22;1399;47.072;15.452;2022-10-16T03:51:39;14.70;80.90
2783;DHT22;1399;47.072;15.452;2022-10-16T03:54:06;14.70;80.90
2783;DHT22;1399;47.072;15.452;2022-10-16T03:56:31;14.70;80.90
2783;DHT22;1399;47.072;15.452;2022-10-16T03:58:57;14.70;80.90
2783;DHT22;1399;47.072;15.452;2022-10-16T04:01:23;14.70;80.90
2783;DHT22;1399;47.072;15.452;2022-10-16T04:03:48;14.70;81.00
2783;DHT22;1399;47.072;15.452;2022-10-16T04:06:14;14.70;81.00
2783;DHT22;1399;47.072;15.452;2022-10-16T04:08:42;14.70;81.00
2783;DHT22;1399;47.072;15.452;2022-10-16T04:11:08;14.70;80.90
2783;DHT22;1399;47.072;15.452;2022-10-16T04:13:34;14.70;80.90
2783;DHT22;1399;47.072;15.452;2022-10-16T04:16:00;14.70;80.90
2783;DHT22;1399;47.072;15.452;2022-10-16T04:18:25;14.70;80.80
2783;DHT22;1399;47.072;15.452;2022-10-16T04:20:53;14.70;80.90
2783;DHT22;1399;47.072;15.452;2022-10-16T04:23:19;14.70;80.80
2783;DHT22;1399;47.072;15.452;2022-10-16T04:25:45;14.70;80.90
2783;DHT22;1399;47.072;15.452;2022-10-16T04:28:11;14.70;80.90
2783;DHT22;1399;47.072;15.452;2022-10-16T04:30:38;14.70;80.90
2783;DHT22;1399;47.072;15.452;2022-10-16T04:33:04;14.70;80.80
2783;DHT22;1399;47.072;15.452;2022-10-16T04:35:30;14.70;80.90
2783;DHT22;1399;47.072;15.452;2022-10-16T04:37:57;14.70;80.80
2783;DHT22;1399;47.072;15.452;2022-10-16T04:40:23;14.70;80.80
2783;DHT22;1399;47.072;15.452;2022-10-16T04:42:49;14.70;80.90
2783;DHT22;1399;47.072;15.452;2022-10-16T04:45:15;14.70;80.90
2783;DHT22;1399;47.072;15.452;2022-10-16T04:47:41;14.70;80.90
2783;DHT22;1399;47.072;15.452;2022-10-16T04:50:07;14.70;80.90
2783;DHT22;1399;47.072;15.452;2022-10-16T04:52:33;14.70;81.00
2783;DHT22;1399;47.072;15.452;2022-10-16T04:54:59;14.70;80.90
2783;DHT22;1399;47.072;15.452;2022-10-16T04:57:28;14.70;80.90
2783;DHT22;1399;47.072;15.452;2022-10-16T04:59:53;14.70;80.90
2783;DHT22;1399;47.072;15.452;2022-10-16T05:02:19;14.70;81.80
2783;DHT22;1399;47.072;15.452;2022-10-16T05:04:45;14.70;80.90
2783;DHT22;1399;47.072;15.452;2022-10-16T05:07:10;14.70;80.90
2783;DHT22;1399;47.072;15.452;2022-10-16T05:09:36;14.70;80.90
2783;DHT22;1399;47.072;15.452;2022-10-16T05:12:02;14.70;80.90
2783;DHT22;1399;47.072;15.452;2022-10-16T05:14:29;14.70;80.90
2783;DHT22;1399;47.072;15.452;2022-10-16T05:16:55;14.70;80.90
2783;DHT22;1399;47.072;15.452;2022-10-16T05:19:20;14.70;80.90
2783;DHT22;1399;47.072;15.452;2022-10-16T05:21:46;14.70;80.80
2783;DHT22;1399;47.072;15.452;2022-10-16T05:24:12;14.70;80.80
2783;DHT22;1399;47.072;15.452;2022-10-16T05:26:38;14.70;80.80
2783;DHT22;1399;47.072;15.452;2022-10-16T05:29:04;14.70;80.90
2783;DHT22;1399;47.072;15.452;2022-10-16T05:31:29;14.80;81.10
2783;DHT22;1399;47.072;15.452;2022-10-16T05:34:02;14.80;81.10
2783;DHT22;1399;47.072;15.452;2022-10-16T05:36:27;14.80;81.00
2783;DHT22;1399;47.072;15.452;2022-10-16T05:38:53;14.80;81.00
2783;DHT22;1399;47.072;15.452;2022-10-16T05:41:19;14.80;81.10
2783;DHT22;1399;47.072;15.452;2022-10-16T05:43:48;14.80;81.10
2783;DHT22;1399;47.072;15.452;2022-10-16T05:46:14;14.90;81.20
2783;DHT22;1399;47.072;15.452;2022-10-16T05:48:40;14.80;81.10
2783;DHT22;1399;47.072;15.452;2022-10-16T05:51:07;14.80;81.10
2783;DHT22;1399;47.072;15.452;2022-10-16T05:53:35;14.80;81.20
2783;DHT22;1399;47.072;15.452;2022-10-16T05:56:02;14.90;81.30
2783;DHT22;1399;47.072;15.452;2022-10-16T05:58:29;14.90;81.40
2783;DHT22;1399;47.072;15.452;2022-10-16T06:00:58;14.90;81.20
2783;DHT22;1399;47.072;15.452;2022-10-16T06:03:24;14.90;81.20
2783;DHT22;1399;47.072;15.452;2022-10-16T06:05:50;15.00;81.30
2783;DHT22;1399;47.072;15.452;2022-10-16T06:08:16;15.00;81.20
2783;DHT22;1399;47.072;15.452;2022-10-16T06:10:42;15.00;81.20
2783;DHT22;1399;47.072;15.452;2022-10-16T06:13:09;15.00;81.20
2783;DHT22;1399;47.072;15.452;2022-10-16T06:15:35;15.00;81.30
2783;DHT22;1399;47.072;15.452;2022-10-16T06:18:01;15.00;81.30
2783;DHT22;1399;47.072;15.452;2022-10-16T06:20:26;15.00;81.30
2783;DHT22;1399;47.072;15.452;2022-10-16T06:22:52;15.00;81.30
2783;DHT22;1399;47.072;15.452;2022-10-16T06:25:18;15.00;81.40
2783;DHT22;1399;47.072;15.452;2022-10-16T06:27:43;15.00;81.40
2783;DHT22;1399;47.072;15.452;2022-10-16T06:30:09;15.00;81.40
2783;DHT22;1399;47.072;15.452;2022-10-16T06:32:35;15.10;81.40
2783;DHT22;1399;47.072;15.452;2022-10-16T06:35:01;15.10;81.40
2783;DHT22;1399;47.072;15.452;2022-10-16T06:37:27;15.10;81.30
2783;DHT22;1399;47.072;15.452;2022-10-16T06:39:53;15.20;81.20
2783;DHT22;1399;47.072;15.452;2022-10-16T06:42:19;15.20;81.20
2783;DHT22;1399;47.072;15.452;2022-10-16T06:44:45;15.20;81.10
2783;DHT22;1399;47.072;15.452;2022-10-16T06:47:10;15.20;81.10
2783;DHT22;1399;47.072;15.452;2022-10-16T06:49:36;15.30;81.10
2783;DHT22;1399;47.072;15.452;2022-10-16T06:52:02;15.30;81.00
2783;DHT22;1399;47.072;15.452;2022-10-16T06:54:28;15.30;81.10
2783;DHT22;1399;47.072;15.452;2022-10-16T06:56:54;15.30;81.00
2783;DHT22;1399;47.072;15.452;2022-10-16T06:59:22;15.30;81.00
2783;DHT22;1399;47.072;15.452;2022-10-16T07:01:48;15.30;81.00
2783;DHT22;1399;47.072;15.452;2022-10-16T07:04:14;15.30;81.00
2783;DHT22;1399;47.072;15.452;2022-10-16T07:06:40;15.40;81.10
2783;DHT22;1399;47.072;15.452;2022-10-16T07:09:08;15.40;81.10
2783;DHT22;1399;47.072;15.452;2022-10-16T07:11:35;15.40;81.20
2783;DHT22;1399;47.072;15.452;2022-10-16T07:14:01;15.40;81.20
2783;DHT22;1399;47.072;15.452;2022-10-16T07:16:29;15.40;81.20
2783;DHT22;1399;47.072;15.452;2022-10-16T07:18:56;15.40;81.20
2783;DHT22;1399;47.072;15.452;2022-10-16T07:21:27;15.50;81.30
2783;DHT22;1399;47.072;15.452;2022-10-16T07:23:59;15.50;81.20
2783;DHT22;1399;47.072;15.452;2022-10-16T07:26:26;15.50;81.20
2783;DHT22;1399;47.072;15.452;2022-10-16T07:28:52;15.50;81.20
2783;DHT22;1399;47.072;15.452;2022-10-16T07:31:19;15.60;81.20
2783;DHT22;1399;47.072;15.452;2022-10-16T07:33:46;15.60;81.20
2783;DHT22;1399;47.072;15.452;2022-10-16T07:36:14;15.60;81.20
2783;DHT22;1399;47.072;15.452;2022-10-16T07:38:40;15.60;81.10
2783;DHT22;1399;47.072;15.452;2022-10-16T07:41:13;15.70;81.10
2783;DHT22;1399;47.072;15.452;2022-10-16T07:43:40;15.70;81.10
2783;DHT22;1399;47.072;15.452;2022-10-16T07:46:06;15.70;81.10
2783;DHT22;1399;47.072;15.452;2022-10-16T07:48:34;15.80;81.10
2783;DHT22;1399;47.072;15.452;2022-10-16T07:51:01;15.80;81.10
2783;DHT22;1399;47.072;15.452;2022-10-16T07:53:28;15.80;81.10
2783;DHT22;1399;47.072;15.452;2022-10-16T07:56:02;15.80;81.10
2783;DHT22;1399;47.072;15.452;2022-10-16T07:58:29;15.90;81.20
2783;DHT22;1399;47.072;15.452;2022-10-16T08:00:56;15.90;81.20
2783;DHT22;1399;47.072;15.452;2022-10-16T08:03:22;15.90;81.10
2783;DHT22;1399;47.072;15.452;2022-10-16T08:05:48;16.00;81.20
2783;DHT22;1399;47.072;15.452;2022-10-16T08:08:18;16.00;81.20
2783;DHT22;1399;47.072;15.452;2022-10-16T08:10:44;16.00;81.10
2783;DHT22;1399;47.072;15.452;2022-10-16T08:13:10;16.10;81.10
2783;DHT22;1399;47.072;15.452;2022-10-16T08:15:36;16.10;81.00
2783;DHT22;1399;47.072;15.452;2022-10-16T08:18:04;16.10;80.80
2783;DHT22;1399;47.072;15.452;2022-10-16T08:20:31;16.10;80.70
2783;DHT22;1399;47.072;15.452;2022-10-16T08:22:59;16.20;80.70
2783;DHT22;1399;47.072;15.452;2022-10-16T08:25:25;16.20;80.70
2783;DHT22;1399;47.072;15.452;2022-10-16T08:27:51;16.20;80.60
2783;DHT22;1399;47.072;15.452;2022-10-16T08:30:19;16.20;80.50
2783;DHT22;1399;47.072;15.452;2022-10-16T08:32:45;16.20;80.50
2783;DHT22;1399;47.072;15.452;2022-10-16T08:35:12;16.30;80.60
2783;DHT22;1399;47.072;15.452;2022-10-16T08:37:38;16.30;80.60
2783;DHT22;1399;47.072;15.452;2022-10-16T08:40:05;16.30;80.50
2783;DHT22;1399;47.072;15.452;2022-10-16T08:50:35;16.40;80.70
2783;DHT22;1399;47.072;15.452;2022-10-16T08:53:04;16.50;80.80
2783;DHT22;1399;47.072;15.452;2022-10-16T08:55:42;16.50;80.90
2783;DHT22;1399;47.072;15.452;2022-10-16T08:58:13;16.50;80.90
2783;DHT22;1399;47.072;15.452;2022-10-16T09:00:40;16.50;80.90
2783;DHT22;1399;47.072;15.452;2022-10-16T09:03:17;16.50;80.90
2783;DHT22;1399;47.072;15.452;2022-10-16T09:08:44;16.60;80.80
2783;DHT22;1399;47.072;15.452;2022-10-16T09:11:22;16.60;80.70
2783;DHT22;1399;47.072;15.452;2022-10-16T09:16:41;16.60;80.80
2783;DHT22;1399;47.072;15.452;2022-10-16T09:21:49;16.60;80.70
2783;DHT22;1399;47.072;15.452;2022-10-16T09:24:18;16.70;80.80
2783;DHT22;1399;47.072;15.452;2022-10-16T09:26:45;16.70;80.80
2783;DHT22;1399;47.072;15.452;2022-10-16T09:29:16;16.70;80.80
2783;DHT22;1399;47.072;15.452;2022-10-16T09:31:46;16.70;80.90
2783;DHT22;1399;47.072;15.452;2022-10-16T09:34:29;16.70;80.80
2783;DHT22;1399;47.072;15.452;2022-10-16T09:36:58;16.70;80.80
2783;DHT22;1399;47.072;15.452;2022-10-16T09:39:25;16.80;81.00
2783;DHT22;1399;47.072;15.452;2022-10-16T09:41:51;16.80;80.90
2783;DHT22;1399;47.072;15.452;2022-10-16T09:44:28;16.80;80.90
2783;DHT22;1399;47.072;15.452;2022-10-16T09:47:11;16.80;80.80
2783;DHT22;1399;47.072;15.452;2022-10-16T09:49:38;16.90;80.80
2783;DHT22;1399;47.072;15.452;2022-10-16T09:52:13;16.80;80.70
2783;DHT22;1399;47.072;15.452;2022-10-16T09:55:00;16.90;80.70
2783;DHT22;1399;47.072;15.452;2022-10-16T09:57:26;16.90;80.60
2783;DHT22;1399;47.072;15.452;2022-10-16T09:59:54;16.90;80.60
2783;DHT22;1399;47.072;15.452;2022-10-16T10:02:37;16.90;80.50
2783;DHT22;1399;47.072;15.452;2022-10-16T10:05:18;16.90;80.50
2783;DHT22;1399;47.072;15.452;2022-10-16T10:07:46;17.00;80.50
2783;DHT22;1399;47.072;15.452;2022-10-16T10:10:29;17.20;80.40
2783;DHT22;1399;47.072;15.452;2022-10-16T10:12:56;17.30;80.10
2783;DHT22;1399;47.072;15.452;2022-10-16T10:15:23;17.30;79.70
2783;DHT22;1399;47.072;15.452;2022-10-16T10:17:55;17.30;79.60
2783;DHT22;1399;47.072;15.452;2022-10-16T10:20:30;17.30;79.50
2783;DHT22;1399;47.072;15.452;2022-10-16T10:22:58;17.30;79.50
2783;DHT22;1399;47.072;15.452;2022-10-16T10:31:10;17.20;79.70
2783;DHT22;1399;47.072;15.452;2022-10-16T10:47:11;17.80;78.00
2783;DHT22;1399;47.072;15.452;2022-10-16T10:53:30;17.80;77.70
2783;DHT22;1399;47.072;15.452;2022-10-16T10:59:01;17.70;77.80
2783;DHT22;1399;47.072;15.452;2022-10-16T11:01:38;17.70;77.90
2783;DHT22;1399;47.072;15.452;2022-10-16T11:06:59;17.60;78.20
2783;DHT22;1399;47.072;15.452;2022-10-16T11:09:40;17.60;78.40
2783;DHT22;1399;47.072;15.452;2022-10-16T11:17:43;17.60;78.90
2783;DHT22;1399;47.072;15.452;2022-10-16T11:20:16;17.60;79.00
2783;DHT22;1399;47.072;15.452;2022-10-16T11:22:56;17.60;79.00
2783;DHT22;1399;47.072;15.452;2022-10-16T11:25:27;17.50;79.00
2783;DHT22;1399;47.072;15.452;2022-10-16T11:28:16;17.50;79.20
2783;DHT22;1399;47.072;15.452;2022-10-16T11:30:47;17.50;79.20
2783;DHT22;1399;47.072;15.452;2022-10-16T11:35:55;17.50;79.30
2783;DHT22;1399;47.072;15.452;2022-10-16T11:41:15;17.50;79.30
2783;DHT22;1399;47.072;15.452;2022-10-16T11:43:45;17.50;79.30
2783;DHT22;1399;47.072;15.452;2022-10-16T11:46:20;17.50;79.40
2783;DHT22;1399;47.072;15.452;2022-10-16T11:51:33;17.50;79.50
2783;DHT22;1399;47.072;15.452;2022-10-16T12:00:10;17.50;79.50
2783;DHT22;1399;47.072;15.452;2022-10-16T12:03:00;17.50;79.50
2783;DHT22;1399;47.072;15.452;2022-10-16T12:05:55;17.50;79.60
2783;DHT22;1399;47.072;15.452;2022-10-16T12:08:23;17.50;79.50
2783;DHT22;1399;47.072;15.452;2022-10-16T12:10:49;17.50;79.60
2783;DHT22;1399;47.072;15.452;2022-10-16T12:16:24;17.50;79.60
2783;DHT22;1399;47.072;15.452;2022-10-16T12:18:50;17.50;79.60
2783;DHT22;1399;47.072;15.452;2022-10-16T12:21:31;17.50;79.60
2783;DHT22;1399;47.072;15.452;2022-10-16T12:24:02;17.50;79.60
2783;DHT22;1399;47.072;15.452;2022-10-16T12:26:33;17.50;79.70
2783;DHT22;1399;47.072;15.452;2022-10-16T12:29:38;17.50;79.70
2783;DHT22;1399;47.072;15.452;2022-10-16T12:32:18;17.50;79.70
2783;DHT22;1399;47.072;15.452;2022-10-16T12:34:47;17.50;79.60
2783;DHT22;1399;47.072;15.452;2022-10-16T12:37:23;17.50;79.60
2783;DHT22;1399;47.072;15.452;2022-10-16T12:39:52;17.50;79.60
2783;DHT22;1399;47.072;15.452;2022-10-16T12:44:54;17.50;79.70
2783;DHT22;1399;47.072;15.452;2022-10-16T12:49:54;17.50;79.70
2783;DHT22;1399;47.072;15.452;2022-10-16T12:55:01;17.50;79.70
2783;DHT22;1399;47.072;15.452;2022-10-16T13:00:48;17.50;79.70
2783;DHT22;1399;47.072;15.452;2022-10-16T13:04:27;17.50;79.70
2783;DHT22;1399;47.072;15.452;2022-10-16T13:06:34;17.50;79.70
2783;DHT22;1399;47.072;15.452;2022-10-16T13:14:53;17.50;79.70
2783;DHT22;1399;47.072;15.452;2022-10-16T13:17:34;17.60;79.90
2783;DHT22;1399;47.072;15.452;2022-10-16T13:25:42;17.50;79.80
2783;DHT22;1399;47.072;15.452;2022-10-16T13:28:11;17.60;79.90
2783;DHT22;1399;47.072;15.452;2022-10-16T13:30:41;17.60;80.00
2783;DHT22;1399;47.072;15.452;2022-10-16T13:33:14;17.60;79.90
2783;DHT22;1399;47.072;15.452;2022-10-16T13:35:53;17.60;79.90
2783;DHT22;1399;47.072;15.452;2022-10-16T13:43:36;17.60;80.00
2783;DHT22;1399;47.072;15.452;2022-10-16T13:46:14;17.60;79.90
2783;DHT22;1399;47.072;15.452;2022-10-16T13:48:41;17.60;79.90
2783;DHT22;1399;47.072;15.452;2022-10-16T13:51:17;17.60;79.90
2783;DHT22;1399;47.072;15.452;2022-10-16T13:53:43;17.60;79.90
2783;DHT22;1399;47.072;15.452;2022-10-16T13:56:15;17.60;80.00
2783;DHT22;1399;47.072;15.452;2022-10-16T13:58:42;17.60;80.00
2783;DHT22;1399;47.072;15.452;2022-10-16T14:03:43;17.60;80.00
2783;DHT22;1399;47.072;15.452;2022-10-16T14:06:15;17.60;80.00
2783;DHT22;1399;47.072;15.452;2022-10-16T14:08:50;17.60;80.00
2783;DHT22;1399;47.072;15.452;2022-10-16T14:11:23;17.60;80.00
2783;DHT22;1399;47.072;15.452;2022-10-16T14:13:50;17.60;79.90
2783;DHT22;1399;47.072;15.452;2022-10-16T14:16:21;17.60;80.00
2783;DHT22;1399;47.072;15.452;2022-10-16T14:21:21;17.60;80.00
2783;DHT22;1399;47.072;15.452;2022-10-16T14:23:47;17.60;80.00
2783;DHT22;1399;47.072;15.452;2022-10-16T14:26:15;17.60;80.00
2783;DHT22;1399;47.072;15.452;2022-10-16T14:28:42;17.60;80.00
2783;DHT22;1399;47.072;15.452;2022-10-16T14:31:26;17.60;80.00
2783;DHT22;1399;47.072;15.452;2022-10-16T14:33:52;17.60;80.00
2783;DHT22;1399;47.072;15.452;2022-10-16T14:36:18;17.60;80.00
2783;DHT22;1399;47.072;15.452;2022-10-16T14:39:02;17.60;80.00
2783;DHT22;1399;47.072;15.452;2022-10-16T14:41:30;17.60;80.00
2783;DHT22;1399;47.072;15.452;2022-10-16T14:44:01;17.60;80.10
2783;DHT22;1399;47.072;15.452;2022-10-16T14:46:36;17.60;80.00
2783;DHT22;1399;47.072;15.452;2022-10-16T14:51:39;17.60;80.00
2783;DHT22;1399;47.072;15.452;2022-10-16T14:54:08;17.60;80.10
2783;DHT22;1399;47.072;15.452;2022-10-16T14:57:04;17.60;80.00
2783;DHT22;1399;47.072;15.452;2022-10-16T14:59:38;17.60;80.00
2783;DHT22;1399;47.072;15.452;2022-10-16T15:02:35;17.60;80.00
2783;DHT22;1399;47.072;15.452;2022-10-16T15:05:15;17.60;80.00
2783;DHT22;1399;47.072;15.452;2022-10-16T15:07:41;17.60;80.00
2783;DHT22;1399;47.072;15.452;2022-10-16T15:10:07;17.60;80.10
2783;DHT22;1399;47.072;15.452;2022-10-16T15:12:33;17.60;80.10
2783;DHT22;1399;47.072;15.452;2022-10-16T15:14:59;17.60;80.10
2783;DHT22;1399;47.072;15.452;2022-10-16T15:17:24;17.60;80.10
2783;DHT22;1399;47.072;15.452;2022-10-16T15:19:50;17.60;80.10
2783;DHT22;1399;47.072;15.452;2022-10-16T15:22:16;17.60;80.20
2783;DHT22;1399;47.072;15.452;2022-10-16T15:24:43;17.60;80.10
2783;DHT22;1399;47.072;15.452;2022-10-16T15:27:08;17.60;80.20
2783;DHT22;1399;47.072;15.452;2022-10-16T15:29:34;17.50;80.10
2783;DHT22;1399;47.072;15.452;2022-10-16T15:32:00;17.60;80.20
2783;DHT22;1399;47.072;15.452;2022-10-16T15:34:26;17.50;80.20
2783;DHT22;1399;47.072;15.452;2022-10-16T15:36:51;17.50;80.20
2783;DHT22;1399;47.072;15.452;2022-10-16T15:39:19;17.50;80.20
2783;DHT22;1399;47.072;15.452;2022-10-16T15:41:46;17.50;80.20
2783;DHT22;1399;47.072;15.452;2022-10-16T15:44:19;17.50;80.20
2783;DHT22;1399;47.072;15.452;2022-10-16T15:46:46;17.50;80.30
2783;DHT22;1399;47.072;15.452;2022-10-16T15:49:12;17.50;80.30
2783;DHT22;1399;47.072;15.452;2022-10-16T15:51:39;17.50;80.30
2783;DHT22;1399;47.072;15.452;2022-10-16T15:54:06;17.50;80.30
2783;DHT22;1399;47.072;15.452;2022-10-16T15:56:32;17.50;80.30
2783;DHT22;1399;47.072;15.452;2022-10-16T15:58:59;17.40;80.30
2783;DHT22;1399;47.072;15.452;2022-10-16T16:01:26;17.40;80.30
2783;DHT22;1399;47.072;15.452;2022-10-16T16:03:53;17.40;80.40
2783;DHT22;1399;47.072;15.452;2022-10-16T16:06:19;17.40;80.50
2783;DHT22;1399;47.072;15.452;2022-10-16T16:08:45;17.40;80.50
2783;DHT22;1399;47.072;15.452;2022-10-16T16:11:13;17.30;80.30
2783;DHT22;1399;47.072;15.452;2022-10-16T16:13:40;17.30;80.40
2783;DHT22;1399;47.072;15.452;2022-10-16T16:16:12;17.40;80.50
2783;DHT22;1399;47.072;15.452;2022-10-16T16:18:38;17.30;80.50
2783;DHT22;1399;47.072;15.452;2022-10-16T16:21:05;17.30;80.50
2783;DHT22;1399;47.072;15.452;2022-10-16T16:23:31;17.30;80.60
2783;DHT22;1399;47.072;15.452;2022-10-16T16:28:39;17.20;80.60
2783;DHT22;1399;47.072;15.452;2022-10-16T16:31:05;17.20;80.70
2783;DHT22;1399;47.072;15.452;2022-10-16T16:33:31;17.20;80.80
2783;DHT22;1399;47.072;15.452;2022-10-16T16:36:01;17.20;80.80
2783;DHT22;1399;47.072;15.452;2022-10-16T16:38:28;17.20;80.90
2783;DHT22;1399;47.072;15.452;2022-10-16T16:40:54;17.20;81.00
2783;DHT22;1399;47.072;15.452;2022-10-16T16:43:27;17.10;81.00
2783;DHT22;1399;47.072;15.452;2022-10-16T16:45:54;17.10;81.10
2783;DHT22;1399;47.072;15.452;2022-10-16T16:48:22;17.10;81.20
2783;DHT22;1399;47.072;15.452;2022-10-16T16:50:48;17.10;81.30
2783;DHT22;1399;47.072;15.452;2022-10-16T16:53:14;17.10;81.50
2783;DHT22;1399;47.072;15.452;2022-10-16T16:55:41;17.00;81.60
2783;DHT22;1399;47.072;15.452;2022-10-16T16:58:07;17.00;81.80
2783;DHT22;1399;47.072;15.452;2022-10-16T17:00:33;17.00;81.90
2783;DHT22;1399;47.072;15.452;2022-10-16T17:02:59;17.00;82.00
2783;DHT22;1399;47.072;15.452;2022-10-16T17:05:25;17.00;82.20
2783;DHT22;1399;47.072;15.452;2022-10-16T17:07:51;17.00;82.30
2783;DHT22;1399;47.072;15.452;2022-10-16T17:10:17;17.00;82.50
2783;DHT22;1399;47.072;15.452;2022-10-16T17:12:43;17.00;82.60
2783;DHT22;1399;47.072;15.452;2022-10-16T17:15:09;17.00;82.80
2783;DHT22;1399;47.072;15.452;2022-10-16T17:17:35;16.90;82.90
2783;DHT22;1399;47.072;15.452;2022-10-16T17:20:02;16.90;83.10
2783;DHT22;1399;47.072;15.452;2022-10-16T17:22:30;16.90;83.30
2783;DHT22;1399;47.072;15.452;2022-10-16T17:24:56;16.90;83.40
2783;DHT22;1399;47.072;15.452;2022-10-16T17:27:22;16.90;83.50
2783;DHT22;1399;47.072;15.452;2022-10-16T17:29:51;16.90;83.70
2783;DHT22;1399;47.072;15.452;2022-10-16T17:32:17;16.90;83.80
2783;DHT22;1399;47.072;15.452;2022-10-16T17:34:46;16.80;84.00
2783;DHT22;1399;47.072;15.452;2022-10-16T17:37:13;16.80;84.20
2783;DHT22;1399;47.072;15.452;2022-10-16T17:39:39;16.80;84.30
2783;DHT22;1399;47.072;15.452;2022-10-16T17:42:08;16.80;84.40
2783;DHT22;1399;47.072;15.452;2022-10-16T17:44:35;16.80;84.70
2783;DHT22;1399;47.072;15.452;2022-10-16T17:47:01;16.80;85.00
2783;DHT22;1399;47.072;15.452;2022-10-16T17:49:27;16.70;85.10
2783;DHT22;1399;47.072;15.452;2022-10-16T17:51:54;16.70;85.30
2783;DHT22;1399;47.072;15.452;2022-10-16T17:54:20;16.70;85.60
2783;DHT22;1399;47.072;15.452;2022-10-16T17:56:46;16.70;85.70
2783;DHT22;1399;47.072;15.452;2022-10-16T17:59:13;16.70;85.80
2783;DHT22;1399;47.072;15.452;2022-10-16T18:01:40;16.70;86.00